Elmer, New Jersey
Current Conditions -  °F | °C
As of 9:54 PM on Monday 26 Jan 2015 (Local Time) from KMIV Reporting Station
Overcast Overcast  
Wind Chill: 18°   Ceiling: 1400
Heat Index: 30°   Visibility: 10mi
Dew Point: 25°   Wind: 18mph
Humidity: 82%   Direction: 30°NNE
Pressure: 29.66"   Gusts: 28mph
Location:  39.6°N, 75.17°W
Report Text: KMIV 270254Z AUTO 03016G24KT 10SM OVC014 M01/M04 A2966 RMK AO2 PK WND 01030/0219 SLP043 T10111039 58007
Loading
Personal Weather Stations






























Interactive Weather Map New forecast layout! Learn more

10-Day Weather Forecast

Advertisements
Track Severe Weather on mobile